createdAt,value
2022-10-30T00:00:52.086Z,12.60
2022-10-30T00:06:20.212Z,12.60
2022-10-30T00:11:48.193Z,12.60
2022-10-30T00:17:17.115Z,12.60
2022-10-30T00:22:44.992Z,12.60
2022-10-30T00:28:12.989Z,12.60
2022-10-30T00:33:40.761Z,12.70
2022-10-30T00:39:08.632Z,12.70
2022-10-30T00:44:47.398Z,12.70
2022-10-30T00:50:22.243Z,12.80
2022-10-30T00:55:58.597Z,12.80
2022-10-30T01:01:28.970Z,12.70
2022-10-30T01:06:58.173Z,12.60
2022-10-30T01:12:26.087Z,12.50
2022-10-30T01:18:15.042Z,12.40
2022-10-30T01:23:59.813Z,12.40
2022-10-30T01:29:52.472Z,12.30
2022-10-30T01:35:48.156Z,12.20
2022-10-30T01:41:16.048Z,12.20
2022-10-30T01:47:07.661Z,12.10
2022-10-30T01:52:50.405Z,12.00
2022-10-30T01:58:59.142Z,11.90
2022-10-30T02:04:27.276Z,11.70
2022-10-30T02:09:56.120Z,11.60
2022-10-30T02:15:24.120Z,11.50
2022-10-30T02:20:52.205Z,11.50
2022-10-30T02:26:21.356Z,11.40
2022-10-30T02:31:49.720Z,11.30
2022-10-30T02:37:17.500Z,11.20
2022-10-30T02:42:45.312Z,11.10
2022-10-30T02:48:15.062Z,11.10
2022-10-30T02:53:43.000Z,11.00
2022-10-30T02:59:11.893Z,10.90
2022-10-30T03:04:39.823Z,10.90
2022-10-30T03:10:08.197Z,10.80
2022-10-30T03:15:37.746Z,10.80
2022-10-30T03:21:10.125Z,10.70
2022-10-30T03:26:38.229Z,10.70
2022-10-30T03:32:11.969Z,10.60
2022-10-30T03:37:51.598Z,10.50
2022-10-30T03:43:21.136Z,10.50
2022-10-30T03:48:50.554Z,10.40
2022-10-30T03:54:18.667Z,10.30
2022-10-30T03:59:46.704Z,10.30
2022-10-30T04:05:38.985Z,10.30
2022-10-30T04:11:07.043Z,10.30
2022-10-30T04:16:34.975Z,10.30
2022-10-30T04:22:03.781Z,10.30
2022-10-30T04:27:32.051Z,10.30
2022-10-30T04:33:00.718Z,10.30
2022-10-30T04:38:28.891Z,10.30
2022-10-30T04:43:57.695Z,10.20
2022-10-30T04:49:25.606Z,10.20
2022-10-30T04:54:53.463Z,10.20
2022-10-30T05:00:21.519Z,10.10
2022-10-30T05:05:58.466Z,10.10
2022-10-30T05:11:26.528Z,10.00
2022-10-30T05:16:54.894Z,10.00
2022-10-30T05:22:22.678Z,9.90
2022-10-30T05:27:50.536Z,9.90
2022-10-30T05:33:20.405Z,9.90
2022-10-30T05:38:49.487Z,9.90
2022-10-30T05:44:58.580Z,9.90
2022-10-30T05:50:18.139Z,9.90
2022-10-30T05:55:58.948Z,9.90
2022-10-30T06:01:31.090Z,9.90
2022-10-30T06:07:02.253Z,10.00
2022-10-30T06:12:30.220Z,10.00
2022-10-30T06:18:12.768Z,10.10
2022-10-30T06:23:44.013Z,10.10
2022-10-30T06:29:26.905Z,10.20
2022-10-30T06:34:54.801Z,10.40
2022-10-30T06:40:23.712Z,10.60
2022-10-30T06:46:25.728Z,10.80
2022-10-30T06:51:57.168Z,11.10
2022-10-30T06:57:26.576Z,11.30
2022-10-30T07:03:08.889Z,11.50
2022-10-30T07:08:36.776Z,11.80
2022-10-30T07:14:04.809Z,12.10
2022-10-30T07:19:46.081Z,12.30
2022-10-30T07:25:15.521Z,12.60
2022-10-30T07:31:12.227Z,12.90
2022-10-30T07:36:51.888Z,13.20
2022-10-30T07:42:29.720Z,13.50
2022-10-30T07:48:15.965Z,13.70
2022-10-30T07:53:55.168Z,14.00
2022-10-30T07:59:26.186Z,14.30
2022-10-30T08:05:13.986Z,14.70
2022-10-30T08:11:02.180Z,15.10
2022-10-30T08:16:31.241Z,15.40
2022-10-30T08:22:00.263Z,15.60
2022-10-30T08:27:28.481Z,15.90
2022-10-30T08:33:06.000Z,16.30
2022-10-30T08:39:12.142Z,16.70
2022-10-30T08:44:51.240Z,17.00
2022-10-30T08:50:19.174Z,17.30
2022-10-30T08:55:47.990Z,17.70
2022-10-30T09:01:27.043Z,18.00
2022-10-30T09:07:24.583Z,18.20
2022-10-30T09:13:12.917Z,18.50
2022-10-30T09:18:42.436Z,18.70
2022-10-30T09:24:10.637Z,19.00
2022-10-30T09:29:38.594Z,19.30
2022-10-30T09:35:18.305Z,19.60
2022-10-30T09:41:22.415Z,19.90
2022-10-30T09:47:23.033Z,20.10
2022-10-30T09:53:38.736Z,20.30
2022-10-30T09:59:58.677Z,20.60
2022-10-30T10:05:52.659Z,20.70
2022-10-30T10:11:47.705Z,20.90
2022-10-30T10:17:35.103Z,21.20
2022-10-30T10:23:53.357Z,21.40
2022-10-30T10:29:41.072Z,21.60
2022-10-30T10:35:54.913Z,21.70
2022-10-30T10:41:28.293Z,22.10
2022-10-30T10:47:20.616Z,22.30
2022-10-30T10:53:02.663Z,22.60
2022-10-30T10:58:43.944Z,22.90
2022-10-30T11:04:40.278Z,23.10
2022-10-30T11:10:15.202Z,23.30
2022-10-30T11:16:10.766Z,23.40
2022-10-30T11:21:52.579Z,23.60
2022-10-30T11:27:25.364Z,23.50
2022-10-30T11:32:55.449Z,23.40
2022-10-30T11:38:27.566Z,23.30
2022-10-30T11:43:55.823Z,23.30
2022-10-30T11:49:31.912Z,23.30
2022-10-30T11:55:20.867Z,23.50
2022-10-30T12:01:15.108Z,23.60
2022-10-30T12:06:43.191Z,23.90
2022-10-30T12:12:31.727Z,24.10
2022-10-30T12:18:03.613Z,24.20
2022-10-30T12:23:32.573Z,24.30
2022-10-30T12:29:05.548Z,24.20
2022-10-30T12:35:03.368Z,24.10
2022-10-30T12:40:38.118Z,24.30
2022-10-30T12:46:34.513Z,24.20
2022-10-30T12:52:20.328Z,24.20
2022-10-30T12:58:30.195Z,24.50
2022-10-30T13:04:22.516Z,24.70
2022-10-30T13:10:23.755Z,25.10
2022-10-30T13:15:56.046Z,25.70
2022-10-30T13:22:01.591Z,26.10
2022-10-30T13:27:52.946Z,26.70
2022-10-30T13:33:50.382Z,27.50
2022-10-30T13:39:45.779Z,28.70
2022-10-30T13:45:50.280Z,30.40
2022-10-30T13:51:35.888Z,31.50
2022-10-30T13:57:27.380Z,31.70
2022-10-30T14:03:12.496Z,31.50
2022-10-30T14:09:08.927Z,31.20
2022-10-30T14:14:48.023Z,30.40
2022-10-30T14:20:16.179Z,31.20
2022-10-30T14:25:44.169Z,31.50
2022-10-30T14:31:18.750Z,30.40
2022-10-30T14:36:46.512Z,29.10
2022-10-30T14:42:26.247Z,28.30
2022-10-30T14:48:08.203Z,28.20
2022-10-30T14:54:30.982Z,27.30
2022-10-30T15:00:41.893Z,25.90
2022-10-30T15:06:32.515Z,24.90
2022-10-30T15:12:22.645Z,24.20
2022-10-30T15:17:55.648Z,23.60
2022-10-30T15:23:31.842Z,23.20
2022-10-30T15:29:00.308Z,22.70
2022-10-30T15:34:33.665Z,22.30
2022-10-30T15:40:21.381Z,21.90
2022-10-30T15:45:50.563Z,21.40
2022-10-30T15:51:23.418Z,21.00
2022-10-30T16:03:03.874Z,20.40
2022-10-30T16:08:31.752Z,20.00
2022-10-30T16:14:08.312Z,19.70
2022-10-30T16:19:45.249Z,19.50
2022-10-30T16:25:16.038Z,19.20
2022-10-30T16:30:44.060Z,19.00
2022-10-30T16:36:17.589Z,18.80
2022-10-30T16:41:47.102Z,18.60
2022-10-30T16:47:17.990Z,18.40
2022-10-30T16:52:46.213Z,18.20
2022-10-30T16:58:16.950Z,18.10
2022-10-30T17:03:45.169Z,17.80
2022-10-30T17:09:22.739Z,17.60
2022-10-30T17:15:13.261Z,17.50
2022-10-30T17:20:41.188Z,17.30
2022-10-30T17:26:10.830Z,17.00
2022-10-30T17:31:38.607Z,16.90
2022-10-30T17:37:06.744Z,16.70
2022-10-30T17:42:34.786Z,16.50
2022-10-30T17:48:02.991Z,16.40
2022-10-30T17:53:30.968Z,16.20
2022-10-30T17:58:58.890Z,16.00
2022-10-30T18:04:26.974Z,15.90
2022-10-30T18:09:54.781Z,15.70
2022-10-30T18:15:36.663Z,15.50
2022-10-30T18:21:04.596Z,15.40
2022-10-30T18:26:36.323Z,15.30
2022-10-30T18:32:09.808Z,15.10
2022-10-30T18:37:37.818Z,15.00
2022-10-30T18:43:05.631Z,14.80
2022-10-30T18:48:33.486Z,14.70
2022-10-30T18:54:01.388Z,14.70
2022-10-30T18:59:29.239Z,14.60
2022-10-30T19:04:57.252Z,14.40
2022-10-30T19:10:26.441Z,14.30
2022-10-30T19:16:00.462Z,14.20
2022-10-30T19:21:28.830Z,14.10
2022-10-30T19:26:57.034Z,14.00
2022-10-30T19:32:25.407Z,13.80
2022-10-30T19:37:57.464Z,13.70
2022-10-30T19:43:26.492Z,13.60
2022-10-30T19:48:58.921Z,13.50
2022-10-30T19:54:28.211Z,13.40
2022-10-30T19:59:56.470Z,13.30
2022-10-30T20:05:35.724Z,13.30
2022-10-30T20:11:04.489Z,13.20
2022-10-30T20:16:32.345Z,13.10
2022-10-30T20:22:00.337Z,13.00
2022-10-30T20:27:28.561Z,13.00
2022-10-30T20:32:57.215Z,12.90
2022-10-30T20:38:31.872Z,12.90
2022-10-30T20:43:59.974Z,12.80
2022-10-30T20:49:27.829Z,12.70
2022-10-30T20:54:55.829Z,12.70
2022-10-30T21:00:24.045Z,12.60
2022-10-30T21:06:00.860Z,12.60
2022-10-30T21:11:28.666Z,12.50
2022-10-30T21:16:56.443Z,12.50
2022-10-30T21:22:24.729Z,12.50
2022-10-30T21:27:53.134Z,12.30
2022-10-30T21:33:21.197Z,12.30
2022-10-30T21:38:49.815Z,12.20
2022-10-30T21:44:18.299Z,12.20
2022-10-30T21:49:46.206Z,12.00
2022-10-30T21:55:14.012Z,12.00
2022-10-30T22:00:42.214Z,11.90
2022-10-30T22:06:13.382Z,11.80
2022-10-30T22:11:41.253Z,11.80
2022-10-30T22:17:13.308Z,11.70
2022-10-30T22:22:41.246Z,11.70
2022-10-30T22:28:09.343Z,11.60
2022-10-30T22:33:41.484Z,11.60
2022-10-30T22:39:13.542Z,11.50
2022-10-30T22:44:41.305Z,11.40
2022-10-30T22:50:09.603Z,11.40
2022-10-30T22:55:37.613Z,11.30
2022-10-30T23:01:16.887Z,11.30
2022-10-30T23:06:45.191Z,11.30
2022-10-30T23:12:13.032Z,11.20
2022-10-30T23:17:40.949Z,11.20
2022-10-30T23:23:09.046Z,11.10
2022-10-30T23:28:37.246Z,11.10
2022-10-30T23:34:09.680Z,11.00
2022-10-30T23:39:37.472Z,11.00
2022-10-30T23:45:06.054Z,11.00
2022-10-30T23:50:36.075Z,10.90
2022-10-30T23:56:06.148Z,10.90
